createdAt,value
2018-12-06T07:11:43.562Z,23.53
2018-12-06T07:14:12.986Z,23.47
2018-12-06T07:19:37.621Z,21.87
2018-12-06T07:22:05.787Z,25.37
2018-12-06T07:24:33.446Z,25.03
2018-12-06T07:27:01.035Z,22.40
2018-12-06T07:29:29.297Z,23.70
2018-12-06T07:31:58.860Z,17.67
2018-12-06T07:34:26.656Z,18.00
2018-12-06T07:36:54.305Z,20.20
2018-12-06T07:39:22.656Z,25.37
2018-12-06T07:41:52.298Z,19.70
2018-12-06T07:44:29.599Z,15.37
2018-12-06T07:46:58.988Z,20.97
2018-12-06T07:49:26.577Z,14.70
2018-12-06T07:51:54.705Z,14.53
2018-12-06T07:54:22.973Z,23.30
2018-12-06T07:56:51.134Z,15.87
2018-12-06T07:59:19.029Z,15.43
2018-12-06T08:01:47.033Z,22.07
2018-12-06T08:04:14.636Z,17.37
2018-12-06T08:06:42.181Z,36.00
2018-12-06T08:09:10.071Z,23.33
2018-12-06T08:11:38.704Z,17.13
2018-12-06T08:14:06.580Z,20.17
2018-12-06T08:16:34.844Z,19.67
2018-12-06T08:19:02.470Z,20.03
2018-12-06T08:21:30.763Z,21.23
2018-12-06T08:23:59.057Z,20.40
2018-12-06T08:26:26.759Z,19.60
2018-12-06T08:28:54.326Z,17.97
2018-12-06T08:31:23.848Z,16.80
2018-12-06T08:33:51.488Z,16.00
2018-12-06T08:36:19.125Z,19.70
2018-12-06T08:38:46.730Z,18.50
2018-12-06T08:41:14.270Z,19.13
2018-12-06T08:43:48.762Z,20.07
2018-12-06T08:46:16.395Z,17.00
2018-12-06T08:48:45.968Z,34.30
2018-12-06T08:51:13.508Z,22.57
2018-12-06T08:53:41.977Z,24.30
2018-12-06T08:56:10.397Z,27.33
2018-12-06T08:58:40.029Z,24.17
2018-12-06T09:01:09.548Z,19.20
2018-12-06T09:03:37.102Z,23.00
2018-12-06T09:06:04.761Z,21.90
2018-12-06T09:08:32.468Z,22.53
2018-12-06T09:11:06.201Z,21.30
2018-12-06T09:13:35.527Z,25.37
2018-12-06T09:16:03.108Z,19.40
2018-12-06T09:18:30.803Z,23.20
2018-12-06T09:20:58.479Z,23.00
2018-12-06T09:23:26.180Z,17.33
2018-12-06T09:25:53.878Z,15.60
2018-12-06T09:28:21.508Z,17.33
2018-12-06T09:30:50.009Z,14.33
2018-12-06T09:33:17.688Z,13.65
2018-12-06T09:35:45.482Z,12.50
2018-12-06T09:38:13.104Z,15.17
2018-12-06T09:40:41.583Z,21.77
2018-12-06T09:43:10.495Z,25.00
2018-12-06T09:45:38.286Z,17.60
2018-12-06T09:48:05.867Z,13.83
2018-12-06T09:50:34.506Z,12.00
2018-12-06T09:53:07.852Z,17.50
2018-12-06T09:55:37.290Z,21.00
2018-12-06T09:58:05.792Z,28.57
2018-12-06T10:00:34.290Z,26.77
2018-12-06T10:03:02.704Z,29.63
2018-12-06T10:05:34.560Z,28.03
2018-12-06T10:08:02.571Z,26.97
2018-12-06T10:10:30.173Z,34.40
2018-12-06T10:13:03.052Z,26.97
2018-12-06T10:15:32.148Z,24.17
2018-12-06T10:17:59.726Z,19.10
2018-12-06T10:20:27.297Z,28.80
2018-12-06T10:22:54.831Z,44.17
2018-12-06T10:25:28.484Z,33.40
2018-12-06T10:27:56.017Z,39.43
2018-12-06T10:30:24.481Z,19.67
2018-12-06T10:32:52.061Z,17.30
2018-12-06T10:38:24.353Z,16.23
2018-12-06T10:41:04.863Z,18.43
2018-12-06T10:43:45.391Z,21.97
2018-12-06T10:46:25.932Z,16.47
2018-12-06T10:49:06.414Z,17.53
2018-12-06T10:51:46.982Z,18.20
2018-12-06T10:54:27.384Z,15.07
2018-12-06T10:56:55.310Z,20.10
2018-12-06T10:59:22.963Z,16.80
2018-12-06T11:01:56.561Z,18.27
2018-12-06T11:04:26.167Z,15.70
2018-12-06T11:06:53.746Z,17.20
2018-12-06T11:09:21.458Z,13.80
2018-12-06T11:11:49.563Z,14.97
2018-12-06T11:14:17.238Z,17.37
2018-12-06T11:16:45.858Z,22.10
2018-12-06T11:19:13.527Z,17.33
2018-12-06T11:21:41.500Z,16.17
2018-12-06T11:24:10.126Z,16.53
2018-12-06T11:26:37.729Z,16.63
2018-12-06T11:29:05.326Z,19.13
2018-12-06T11:31:33.560Z,16.00
2018-12-06T11:34:01.279Z,20.87
2018-12-06T11:36:28.813Z,27.13
2018-12-06T11:38:56.595Z,16.37
2018-12-06T11:41:24.204Z,17.93
2018-12-06T11:43:55.477Z,19.23
2018-12-06T11:46:23.951Z,23.13
2018-12-06T11:48:51.524Z,40.83
2018-12-06T11:51:19.356Z,32.87
2018-12-06T11:53:47.035Z,21.13
2018-12-06T11:56:14.894Z,20.93
2018-12-06T11:58:42.533Z,19.90
2018-12-06T12:01:11.011Z,51.77
2018-12-06T12:03:40.337Z,22.90
2018-12-06T12:06:09.238Z,19.57
2018-12-06T12:08:36.861Z,27.77
2018-12-06T12:11:04.769Z,23.57
2018-12-06T12:13:32.419Z,22.40
2018-12-06T12:16:01.065Z,24.23
2018-12-06T12:18:29.581Z,27.77
2018-12-06T12:20:58.191Z,26.83
2018-12-06T12:23:26.749Z,25.47
2018-12-06T12:25:55.075Z,24.70
2018-12-06T12:28:22.770Z,51.20
2018-12-06T12:30:51.357Z,26.07
2018-12-06T12:33:19.352Z,21.17
2018-12-06T12:35:46.992Z,21.60
2018-12-06T12:38:16.864Z,20.67
2018-12-06T12:40:45.264Z,25.83
2018-12-06T12:43:13.804Z,21.07
2018-12-06T12:45:44.112Z,20.93
2018-12-06T12:48:12.960Z,21.13
2018-12-06T12:50:41.371Z,26.43
2018-12-06T12:53:09.211Z,23.27
2018-12-06T12:55:38.109Z,23.33
2018-12-06T12:58:06.490Z,24.30
2018-12-06T13:00:34.200Z,23.07
2018-12-06T13:03:02.068Z,30.93
2018-12-06T13:05:31.004Z,24.87
2018-12-06T13:07:58.801Z,33.83
2018-12-06T13:10:26.363Z,29.32
2018-12-06T13:12:54.743Z,29.13
2018-12-06T13:15:22.306Z,33.17
2018-12-06T13:17:49.834Z,30.80
2018-12-06T13:20:17.349Z,27.97
2018-12-06T13:22:45.059Z,29.53
2018-12-06T13:25:13.064Z,28.60
2018-12-06T13:27:40.677Z,25.20
2018-12-06T13:30:08.287Z,25.93
2018-12-06T13:32:35.876Z,24.57
2018-12-06T13:35:03.721Z,21.93
2018-12-06T13:37:31.432Z,29.63
2018-12-06T13:39:59.925Z,27.00
2018-12-06T13:42:27.702Z,28.93
2018-12-06T13:45:08.450Z,29.27
2018-12-06T13:47:36.028Z,28.43
2018-12-06T13:50:04.212Z,24.53
2018-12-06T13:52:31.925Z,45.70
2018-12-06T13:55:00.682Z,28.03
2018-12-06T13:57:37.400Z,30.50
2018-12-06T14:00:05.551Z,28.37
2018-12-06T14:02:33.166Z,32.13
2018-12-06T14:13:39.548Z,29.63
2018-12-06T14:16:10.582Z,33.37
2018-12-06T14:21:31.462Z,39.67
2018-12-06T14:23:59.027Z,37.90
2018-12-06T14:26:29.504Z,39.30
2018-12-06T14:28:58.156Z,35.03
2018-12-06T14:31:25.701Z,46.43
2018-12-06T14:33:53.300Z,45.87
2018-12-06T14:36:21.415Z,45.07
2018-12-06T14:38:48.982Z,48.90
2018-12-06T14:41:16.537Z,65.70
2018-12-06T14:43:44.122Z,68.50
2018-12-06T14:46:12.698Z,77.60
2018-12-06T14:48:48.990Z,63.77
2018-12-06T14:51:16.522Z,86.03
2018-12-06T14:53:51.042Z,122.43
2018-12-06T14:56:18.805Z,119.77
2018-12-06T14:58:46.346Z,122.63
2018-12-06T15:01:13.882Z,104.50
2018-12-06T15:03:41.485Z,123.57
2018-12-06T15:06:09.033Z,94.53
2018-12-06T15:08:37.363Z,85.50
2018-12-06T15:11:05.134Z,88.03
2018-12-06T15:13:33.686Z,98.80
2018-12-06T15:16:01.277Z,93.60
2018-12-06T15:18:28.862Z,82.57
2018-12-06T15:20:57.022Z,77.40
2018-12-06T15:23:24.666Z,71.67
2018-12-06T15:25:52.243Z,68.27
2018-12-06T15:28:19.877Z,74.90
2018-12-06T15:30:48.386Z,80.33
2018-12-06T15:33:16.002Z,69.60
2018-12-06T15:35:44.416Z,70.70
2018-12-06T15:38:11.973Z,64.33
2018-12-06T15:40:39.517Z,70.83
2018-12-06T15:43:07.903Z,73.10
2018-12-06T15:45:35.490Z,73.63
2018-12-06T15:48:03.038Z,75.83
2018-12-06T15:50:30.649Z,89.97
2018-12-06T15:52:59.123Z,93.40
2018-12-06T15:55:27.726Z,111.80
2018-12-06T15:57:55.305Z,97.20
2018-12-06T16:00:22.907Z,100.37
2018-12-06T16:02:50.445Z,106.20
2018-12-06T16:05:19.006Z,122.43
2018-12-06T16:07:46.546Z,120.87
2018-12-06T16:10:14.098Z,120.80
2018-12-06T16:12:42.542Z,111.50
2018-12-06T16:15:10.149Z,106.70
2018-12-06T16:17:37.741Z,107.93
2018-12-06T16:20:07.489Z,123.73
2018-12-06T16:22:35.179Z,108.77
2018-12-06T16:25:02.733Z,99.83
2018-12-06T16:27:30.304Z,76.17
2018-12-06T16:29:57.917Z,72.47
2018-12-06T16:32:25.510Z,82.17
2018-12-06T16:34:53.093Z,87.03
2018-12-06T16:37:21.504Z,76.67
2018-12-06T16:39:49.049Z,75.40
2018-12-06T16:42:16.661Z,91.50
2018-12-06T16:44:57.924Z,100.70
2018-12-06T16:47:38.402Z,130.67
2018-12-06T16:50:20.746Z,111.03
2018-12-06T16:53:01.238Z,86.03
2018-12-06T16:55:41.789Z,98.93
2018-12-06T16:58:23.117Z,107.83
2018-12-06T17:01:04.943Z,115.53
2018-12-06T17:03:45.166Z,114.80
2018-12-06T17:06:25.934Z,158.37
2018-12-06T17:09:05.851Z,158.03
2018-12-06T17:11:46.366Z,179.67
2018-12-06T17:14:26.904Z,215.10
2018-12-06T17:17:07.348Z,250.60
2018-12-06T17:19:47.744Z,244.93
2018-12-06T17:22:28.139Z,201.23
2018-12-06T17:25:09.194Z,187.07
2018-12-06T17:27:36.829Z,182.60
2018-12-06T17:30:05.730Z,185.20
2018-12-06T17:32:33.520Z,190.33
2018-12-06T17:35:01.141Z,191.73
2018-12-06T17:37:28.739Z,232.77
2018-12-06T17:39:56.352Z,283.47
2018-12-06T17:42:24.036Z,306.33
2018-12-06T17:44:51.699Z,290.83
2018-12-06T17:47:19.378Z,323.40
2018-12-06T17:49:47.006Z,323.37
2018-12-06T17:52:14.569Z,274.80
2018-12-06T17:54:42.164Z,233.97
2018-12-06T17:57:09.726Z,240.33
2018-12-06T17:59:38.155Z,224.57
2018-12-06T18:02:05.727Z,266.33
2018-12-06T18:04:33.724Z,315.50
2018-12-06T18:07:01.283Z,286.37
2018-12-06T18:09:28.858Z,324.80
2018-12-06T18:11:59.268Z,281.00
2018-12-06T18:14:27.362Z,285.70
2018-12-06T18:40:41.112Z,129.07
2018-12-06T18:49:32.795Z,117.03
2018-12-06T18:52:00.695Z,121.77
2018-12-06T18:54:28.317Z,126.00
2018-12-06T18:57:28.127Z,133.77
2018-12-06T19:00:13.331Z,140.63
2018-12-06T19:02:52.682Z,116.60
2018-12-06T19:05:38.433Z,113.40
2018-12-06T19:08:18.573Z,104.37
2018-12-06T19:10:46.148Z,109.03
2018-12-06T19:13:13.696Z,117.87
2018-12-06T19:15:41.272Z,106.63
2018-12-06T19:18:21.605Z,115.10
2018-12-06T19:21:02.024Z,107.93
2018-12-06T19:23:40.884Z,100.40
2018-12-06T19:26:20.972Z,102.00
2018-12-06T19:29:01.509Z,91.00
2018-12-06T19:31:29.144Z,102.17
2018-12-06T19:34:09.349Z,91.60
2018-12-06T19:36:36.917Z,97.83
2018-12-06T19:42:10.032Z,100.67
2018-12-06T19:44:50.195Z,119.03
2018-12-06T19:47:36.426Z,131.67
2018-12-06T19:50:16.569Z,130.57
2018-12-06T19:52:57.262Z,146.47
2018-12-06T19:55:39.033Z,131.80
2018-12-06T19:58:20.417Z,120.57
2018-12-06T20:04:02.325Z,122.73
2018-12-06T20:06:42.765Z,125.00
2018-12-06T20:12:16.436Z,118.73
2018-12-06T20:14:56.847Z,136.17
2018-12-06T20:17:37.329Z,107.37
2018-12-06T20:20:23.348Z,104.53
2018-12-06T20:25:31.962Z,113.33
2018-12-06T20:28:12.308Z,108.33
2018-12-06T20:30:52.761Z,117.67
2018-12-06T20:33:33.263Z,145.43
2018-12-06T20:36:13.722Z,153.80
2018-12-06T20:39:02.426Z,178.20
2018-12-06T20:41:29.970Z,145.20
2018-12-06T20:44:09.940Z,99.47
2018-12-06T20:46:37.464Z,92.10
2018-12-06T20:49:16.435Z,95.77
2018-12-06T20:51:56.342Z,109.57
2018-12-06T20:54:36.778Z,102.83
2018-12-06T20:57:17.318Z,92.60
2018-12-06T20:59:57.580Z,99.93
2018-12-06T21:02:37.933Z,108.73
2018-12-06T21:05:05.469Z,124.53
2018-12-06T21:07:33.042Z,120.27
2018-12-06T21:10:13.389Z,142.43
2018-12-06T21:12:52.909Z,134.67
2018-12-06T22:56:00.770Z,113.10
2018-12-06T22:58:28.295Z,103.50
2018-12-06T23:00:55.876Z,108.57
2018-12-06T23:03:23.391Z,112.53
2018-12-06T23:14:27.526Z,107.43
2018-12-06T23:17:04.073Z,109.70
2018-12-06T23:22:37.143Z,89.90
2018-12-06T23:25:04.880Z,104.97
2018-12-06T23:27:44.987Z,102.10
2018-12-06T23:30:25.454Z,96.93
2018-12-06T23:33:03.789Z,111.47
2018-12-06T23:35:31.352Z,130.20
2018-12-06T23:38:05.150Z,138.07
2018-12-06T23:40:32.809Z,120.30
2018-12-06T23:43:00.946Z,129.13
2018-12-06T23:45:33.271Z,118.83
2018-12-06T23:51:15.239Z,130.63
